sensor_id;sensor_type;location;lat;lon;timestamp;pressure;altitude;pressure_sealevel;temperature;humidity
81387;BME280;70842;50.744;7.114;2023-08-07T00:01:11;100778.91;;;13.89;75.54
81387;BME280;70842;50.744;7.114;2023-08-07T00:03:38;100767.81;;;14.03;75.59
81387;BME280;70842;50.744;7.114;2023-08-07T00:06:04;100773.88;;;13.86;75.84
81387;BME280;70842;50.744;7.114;2023-08-07T00:08:31;100764.97;;;14.14;75.24
81387;BME280;70842;50.744;7.114;2023-08-07T00:11:05;100765.84;;;13.95;75.55
81387;BME280;70842;50.744;7.114;2023-08-07T00:13:31;100769.50;;;13.85;76.25
81387;BME280;70842;50.744;7.114;2023-08-07T00:15:58;100772.03;;;13.96;75.47
81387;BME280;70842;50.744;7.114;2023-08-07T00:18:24;100769.81;;;13.72;76.56
81387;BME280;70842;50.744;7.114;2023-08-07T00:20:50;100779.75;;;13.99;76.01
81387;BME280;70842;50.744;7.114;2023-08-07T00:23:17;100767.38;;;13.98;75.74
81387;BME280;70842;50.744;7.114;2023-08-07T00:25:43;100772.47;;;13.82;75.71
81387;BME280;70842;50.744;7.114;2023-08-07T00:28:10;100779.75;;;13.80;75.83
81387;BME280;70842;50.744;7.114;2023-08-07T00:30:36;100779.88;;;13.97;75.76
81387;BME280;70842;50.744;7.114;2023-08-07T00:33:02;100789.81;;;14.05;75.05
81387;BME280;70842;50.744;7.114;2023-08-07T00:35:29;100768.81;;;13.92;75.32
81387;BME280;70842;50.744;7.114;2023-08-07T00:37:55;100778.03;;;14.07;74.75
81387;BME280;70842;50.744;7.114;2023-08-07T00:40:22;100775.69;;;13.95;74.52
81387;BME280;70842;50.744;7.114;2023-08-07T00:42:48;100780.00;;;14.05;74.65
81387;BME280;70842;50.744;7.114;2023-08-07T00:45:14;100783.13;;;13.72;75.07
81387;BME280;70842;50.744;7.114;2023-08-07T00:47:41;100777.78;;;14.01;75.11
81387;BME280;70842;50.744;7.114;2023-08-07T00:50:08;100784.38;;;13.97;74.92
81387;BME280;70842;50.744;7.114;2023-08-07T00:52:34;100772.97;;;14.14;74.49
81387;BME280;70842;50.744;7.114;2023-08-07T00:55:01;100781.44;;;13.81;75.35
81387;BME280;70842;50.744;7.114;2023-08-07T00:57:27;100796.81;;;14.16;74.01
81387;BME280;70842;50.744;7.114;2023-08-07T00:59:54;100787.06;;;13.78;75.91
81387;BME280;70842;50.744;7.114;2023-08-07T01:02:20;100794.28;;;14.04;74.94
81387;BME280;70842;50.744;7.114;2023-08-07T01:04:47;100790.66;;;14.05;75.07
81387;BME280;70842;50.744;7.114;2023-08-07T01:07:13;100803.03;;;13.97;75.48
81387;BME280;70842;50.744;7.114;2023-08-07T01:09:40;100796.53;;;14.19;74.65
81387;BME280;70842;50.744;7.114;2023-08-07T01:15:02;100801.19;;;13.97;75.05
81387;BME280;70842;50.744;7.114;2023-08-07T01:17:26;100806.78;;;13.85;75.85
81387;BME280;70842;50.744;7.114;2023-08-07T01:19:53;100795.44;;;13.92;75.54
81387;BME280;70842;50.744;7.114;2023-08-07T01:22:20;100801.91;;;13.80;75.45
81387;BME280;70842;50.744;7.114;2023-08-07T01:24:48;100800.94;;;13.72;75.75
81387;BME280;70842;50.744;7.114;2023-08-07T01:32:34;100807.78;;;13.84;74.82
81387;BME280;70842;50.744;7.114;2023-08-07T01:35:02;100792.94;;;13.81;75.76
81387;BME280;70842;50.744;7.114;2023-08-07T01:37:32;100799.25;;;13.80;75.10
81387;BME280;70842;50.744;7.114;2023-08-07T01:40:00;100793.91;;;13.90;74.92
81387;BME280;70842;50.744;7.114;2023-08-07T01:42:27;100798.69;;;13.77;75.03
81387;BME280;70842;50.744;7.114;2023-08-07T01:44:54;100806.09;;;13.83;75.12
81387;BME280;70842;50.744;7.114;2023-08-07T01:47:20;100795.00;;;14.06;74.34
81387;BME280;70842;50.744;7.114;2023-08-07T01:49:47;100801.63;;;13.83;75.10
81387;BME280;70842;50.744;7.114;2023-08-07T01:52:13;100811.44;;;13.83;75.33
81387;BME280;70842;50.744;7.114;2023-08-07T01:54:40;100806.53;;;13.88;74.33
81387;BME280;70842;50.744;7.114;2023-08-07T01:57:06;100806.94;;;13.83;74.32
81387;BME280;70842;50.744;7.114;2023-08-07T01:59:32;100806.25;;;13.91;75.15
81387;BME280;70842;50.744;7.114;2023-08-07T02:01:59;100809.34;;;13.86;74.08
81387;BME280;70842;50.744;7.114;2023-08-07T02:04:25;100804.81;;;13.87;74.37
81387;BME280;70842;50.744;7.114;2023-08-07T02:06:52;100815.03;;;14.20;73.54
81387;BME280;70842;50.744;7.114;2023-08-07T02:09:18;100815.34;;;13.98;73.68
81387;BME280;70842;50.744;7.114;2023-08-07T02:11:45;100809.47;;;13.85;74.07
81387;BME280;70842;50.744;7.114;2023-08-07T02:14:11;100822.94;;;13.93;73.61
81387;BME280;70842;50.744;7.114;2023-08-07T02:16:38;100820.78;;;14.06;73.73
81387;BME280;70842;50.744;7.114;2023-08-07T02:19:04;100825.31;;;14.05;73.94
81387;BME280;70842;50.744;7.114;2023-08-07T02:21:31;100825.28;;;14.15;73.48
81387;BME280;70842;50.744;7.114;2023-08-07T02:23:58;100823.88;;;14.11;73.29
81387;BME280;70842;50.744;7.114;2023-08-07T02:26:24;100831.31;;;14.07;73.74
81387;BME280;70842;50.744;7.114;2023-08-07T02:28:50;100829.63;;;14.06;73.67
81387;BME280;70842;50.744;7.114;2023-08-07T02:31:17;100818.03;;;13.88;73.96
81387;BME280;70842;50.744;7.114;2023-08-07T02:33:43;100820.97;;;13.95;74.43
81387;BME280;70842;50.744;7.114;2023-08-07T02:36:10;100820.66;;;13.98;73.99
81387;BME280;70842;50.744;7.114;2023-08-07T02:38:36;100824.31;;;13.87;74.41
81387;BME280;70842;50.744;7.114;2023-08-07T02:41:02;100822.09;;;13.92;74.28
81387;BME280;70842;50.744;7.114;2023-08-07T02:43:29;100825.16;;;14.07;73.62
81387;BME280;70842;50.744;7.114;2023-08-07T02:45:59;100830.94;;;13.93;73.44
81387;BME280;70842;50.744;7.114;2023-08-07T02:48:25;100819.53;;;14.00;73.28
81387;BME280;70842;50.744;7.114;2023-08-07T02:50:51;100833.28;;;14.05;73.57
81387;BME280;70842;50.744;7.114;2023-08-07T02:53:19;100819.28;;;13.94;73.77
81387;BME280;70842;50.744;7.114;2023-08-07T02:55:45;100832.59;;;13.94;73.80
81387;BME280;70842;50.744;7.114;2023-08-07T02:58:12;100841.28;;;14.05;73.67
81387;BME280;70842;50.744;7.114;2023-08-07T03:00:38;100835.00;;;13.97;73.27
81387;BME280;70842;50.744;7.114;2023-08-07T03:03:04;100831.63;;;13.85;74.49
81387;BME280;70842;50.744;7.114;2023-08-07T03:05:31;100837.50;;;14.08;73.44
81387;BME280;70842;50.744;7.114;2023-08-07T03:07:58;100831.03;;;14.10;73.25
81387;BME280;70842;50.744;7.114;2023-08-07T03:10:24;100829.94;;;13.94;73.59
81387;BME280;70842;50.744;7.114;2023-08-07T03:12:52;100839.75;;;13.65;74.96
81387;BME280;70842;50.744;7.114;2023-08-07T03:15:18;100834.13;;;13.96;74.73
81387;BME280;70842;50.744;7.114;2023-08-07T03:17:45;100834.97;;;13.87;74.78
81387;BME280;70842;50.744;7.114;2023-08-07T03:20:11;100834.38;;;14.13;73.95
81387;BME280;70842;50.744;7.114;2023-08-07T03:22:38;100837.38;;;13.81;74.48
81387;BME280;70842;50.744;7.114;2023-08-07T03:25:04;100840.88;;;13.72;75.37
81387;BME280;70842;50.744;7.114;2023-08-07T03:27:31;100842.41;;;13.84;75.06
81387;BME280;70842;50.744;7.114;2023-08-07T03:29:57;100840.03;;;13.71;74.97
81387;BME280;70842;50.744;7.114;2023-08-07T03:32:24;100843.38;;;13.64;75.42
81387;BME280;70842;50.744;7.114;2023-08-07T03:34:50;100838.06;;;13.64;76.33
81387;BME280;70842;50.744;7.114;2023-08-07T03:37:16;100835.25;;;13.56;75.47
81387;BME280;70842;50.744;7.114;2023-08-07T03:39:43;100836.13;;;13.75;76.77
81387;BME280;70842;50.744;7.114;2023-08-07T03:42:14;100838.63;;;13.86;75.60
81387;BME280;70842;50.744;7.114;2023-08-07T03:44:43;100849.97;;;13.79;76.13
81387;BME280;70842;50.744;7.114;2023-08-07T03:47:09;100849.72;;;13.63;76.68
81387;BME280;70842;50.744;7.114;2023-08-07T03:49:36;100847.16;;;13.42;77.82
81387;BME280;70842;50.744;7.114;2023-08-07T03:52:02;100855.41;;;13.39;77.96
81387;BME280;70842;50.744;7.114;2023-08-07T03:54:29;100862.88;;;13.83;76.90
81387;BME280;70842;50.744;7.114;2023-08-07T03:56:55;100856.97;;;13.42;78.50
81387;BME280;70842;50.744;7.114;2023-08-07T03:59:22;100858.09;;;13.49;78.54
81387;BME280;70842;50.744;7.114;2023-08-07T04:01:49;100855.88;;;13.73;77.65
81387;BME280;70842;50.744;7.114;2023-08-07T04:04:15;100855.72;;;13.55;78.13
81387;BME280;70842;50.744;7.114;2023-08-07T04:06:42;100865.09;;;13.40;78.85
81387;BME280;70842;50.744;7.114;2023-08-07T04:09:10;100851.50;;;13.43;78.54
81387;BME280;70842;50.744;7.114;2023-08-07T04:11:36;100853.88;;;13.27;78.95
81387;BME280;70842;50.744;7.114;2023-08-07T04:14:03;100854.72;;;13.47;78.55
81387;BME280;70842;50.744;7.114;2023-08-07T04:16:30;100862.16;;;13.43;79.10
81387;BME280;70842;50.744;7.114;2023-08-07T04:18:57;100850.78;;;13.32;78.82
81387;BME280;70842;50.744;7.114;2023-08-07T04:21:24;100873.16;;;13.19;80.64
81387;BME280;70842;50.744;7.114;2023-08-07T04:23:50;100872.03;;;13.22;80.95
81387;BME280;70842;50.744;7.114;2023-08-07T04:26:17;100874.91;;;13.00;81.04
81387;BME280;70842;50.744;7.114;2023-08-07T04:28:43;100875.69;;;13.21;81.07
81387;BME280;70842;50.744;7.114;2023-08-07T04:31:09;100876.22;;;13.15;81.27
81387;BME280;70842;50.744;7.114;2023-08-07T04:33:36;100869.88;;;13.06;81.86
81387;BME280;70842;50.744;7.114;2023-08-07T04:36:03;100862.25;;;13.22;80.92
81387;BME280;70842;50.744;7.114;2023-08-07T04:38:29;100873.03;;;13.21;80.69
81387;BME280;70842;50.744;7.114;2023-08-07T04:40:55;100877.66;;;13.19;80.56
81387;BME280;70842;50.744;7.114;2023-08-07T04:43:22;100878.13;;;13.34;80.52
81387;BME280;70842;50.744;7.114;2023-08-07T04:45:48;100883.63;;;13.11;80.97
81387;BME280;70842;50.744;7.114;2023-08-07T04:48:15;100885.91;;;13.25;79.69
81387;BME280;70842;50.744;7.114;2023-08-07T04:50:42;100883.84;;;13.29;79.82
81387;BME280;70842;50.744;7.114;2023-08-07T04:53:09;100882.28;;;13.26;79.82
81387;BME280;70842;50.744;7.114;2023-08-07T04:55:35;100883.09;;;13.17;80.00
81387;BME280;70842;50.744;7.114;2023-08-07T04:58:02;100887.25;;;13.50;78.70
81387;BME280;70842;50.744;7.114;2023-08-07T05:00:28;100892.53;;;13.41;78.78
81387;BME280;70842;50.744;7.114;2023-08-07T05:02:55;100902.09;;;13.53;78.27
81387;BME280;70842;50.744;7.114;2023-08-07T05:05:22;100884.88;;;13.57;78.15
81387;BME280;70842;50.744;7.114;2023-08-07T05:07:49;100888.75;;;13.43;77.96
81387;BME280;70842;50.744;7.114;2023-08-07T05:10:16;100887.25;;;13.60;77.17
81387;BME280;70842;50.744;7.114;2023-08-07T05:12:42;100881.22;;;13.58;76.99
81387;BME280;70842;50.744;7.114;2023-08-07T05:15:09;100882.88;;;13.49;76.73
81387;BME280;70842;50.744;7.114;2023-08-07T05:17:35;100889.34;;;13.66;75.33
81387;BME280;70842;50.744;7.114;2023-08-07T05:20:02;100882.66;;;13.90;75.88
81387;BME280;70842;50.744;7.114;2023-08-07T05:22:29;100885.72;;;13.76;75.58
81387;BME280;70842;50.744;7.114;2023-08-07T05:24:55;100885.72;;;13.67;75.61
81387;BME280;70842;50.744;7.114;2023-08-07T05:27:22;100885.16;;;13.63;75.79
81387;BME280;70842;50.744;7.114;2023-08-07T05:29:48;100897.50;;;13.64;75.21
81387;BME280;70842;50.744;7.114;2023-08-07T05:32:14;100887.28;;;13.69;74.74
81387;BME280;70842;50.744;7.114;2023-08-07T05:34:41;100885.28;;;13.62;75.06
81387;BME280;70842;50.744;7.114;2023-08-07T05:37:08;100886.84;;;13.64;74.97
81387;BME280;70842;50.744;7.114;2023-08-07T05:39:35;100885.72;;;13.76;73.78
81387;BME280;70842;50.744;7.114;2023-08-07T05:42:02;100886.88;;;13.93;74.32
81387;BME280;70842;50.744;7.114;2023-08-07T05:44:29;100880.97;;;13.80;74.22
81387;BME280;70842;50.744;7.114;2023-08-07T05:46:56;100896.41;;;14.05;73.35
81387;BME280;70842;50.744;7.114;2023-08-07T05:49:23;100888.06;;;14.56;72.32
81387;BME280;70842;50.744;7.114;2023-08-07T05:51:52;100899.22;;;14.32;72.64
81387;BME280;70842;50.744;7.114;2023-08-07T05:54:19;100896.94;;;14.08;73.05
81387;BME280;70842;50.744;7.114;2023-08-07T05:56:46;100900.19;;;13.93;73.43
81387;BME280;70842;50.744;7.114;2023-08-07T05:59:12;100912.38;;;13.86;73.53
81387;BME280;70842;50.744;7.114;2023-08-07T06:01:38;100898.91;;;14.16;72.56
81387;BME280;70842;50.744;7.114;2023-08-07T06:04:09;100910.00;;;14.12;71.83
81387;BME280;70842;50.744;7.114;2023-08-07T06:06:36;100915.03;;;13.95;72.28
81387;BME280;70842;50.744;7.114;2023-08-07T06:09:05;100908.44;;;14.09;72.56
81387;BME280;70842;50.744;7.114;2023-08-07T06:11:32;100912.66;;;14.21;71.67
81387;BME280;70842;50.744;7.114;2023-08-07T06:13:59;100904.25;;;13.87;72.44
81387;BME280;70842;50.744;7.114;2023-08-07T06:16:25;100906.06;;;13.87;73.06
81387;BME280;70842;50.744;7.114;2023-08-07T06:18:52;100912.22;;;14.06;72.98
81387;BME280;70842;50.744;7.114;2023-08-07T06:21:19;100915.75;;;13.97;72.01
81387;BME280;70842;50.744;7.114;2023-08-07T06:23:46;100923.97;;;13.66;72.72
81387;BME280;70842;50.744;7.114;2023-08-07T06:26:13;100910.97;;;13.82;71.84
81387;BME280;70842;50.744;7.114;2023-08-07T06:28:39;100928.06;;;13.79;71.45
81387;BME280;70842;50.744;7.114;2023-08-07T06:31:07;100928.91;;;13.80;71.50
81387;BME280;70842;50.744;7.114;2023-08-07T06:33:34;100934.25;;;13.89;72.06
81387;BME280;70842;50.744;7.114;2023-08-07T06:36:02;100924.16;;;13.74;72.51
81387;BME280;70842;50.744;7.114;2023-08-07T06:38:28;100937.34;;;13.94;73.07
81387;BME280;70842;50.744;7.114;2023-08-07T06:40:55;100946.81;;;13.59;73.04
81387;BME280;70842;50.744;7.114;2023-08-07T06:43:21;100932.13;;;13.83;73.95
81387;BME280;70842;50.744;7.114;2023-08-07T06:45:55;100942.22;;;13.80;75.12
81387;BME280;70842;50.744;7.114;2023-08-07T06:48:22;100955.75;;;13.48;76.16
81387;BME280;70842;50.744;7.114;2023-08-07T06:50:50;100949.06;;;13.63;76.36
81387;BME280;70842;50.744;7.114;2023-08-07T06:53:17;100953.09;;;13.58;76.32
81387;BME280;70842;50.744;7.114;2023-08-07T06:55:43;100952.00;;;13.20;77.97
81387;BME280;70842;50.744;7.114;2023-08-07T06:58:10;100962.72;;;13.40;78.43
81387;BME280;70842;50.744;7.114;2023-08-07T07:00:37;100949.19;;;13.12;78.86
81387;BME280;70842;50.744;7.114;2023-08-07T07:03:03;100961.25;;;13.16;79.60
81387;BME280;70842;50.744;7.114;2023-08-07T07:05:31;100948.66;;;13.18;79.81
81387;BME280;70842;50.744;7.114;2023-08-07T07:07:58;100967.25;;;12.98;80.12
81387;BME280;70842;50.744;7.114;2023-08-07T07:10:24;100962.09;;;12.96;80.28
81387;BME280;70842;50.744;7.114;2023-08-07T07:12:51;100965.91;;;13.03;80.61
81387;BME280;70842;50.744;7.114;2023-08-07T07:15:18;100970.28;;;13.04;81.23
81387;BME280;70842;50.744;7.114;2023-08-07T07:17:45;100967.78;;;12.92;80.85
81387;BME280;70842;50.744;7.114;2023-08-07T07:20:11;100976.50;;;13.14;80.37
81387;BME280;70842;50.744;7.114;2023-08-07T07:22:38;100964.22;;;13.02;80.44
81387;BME280;70842;50.744;7.114;2023-08-07T07:25:05;100978.09;;;12.85;81.17
81387;BME280;70842;50.744;7.114;2023-08-07T07:27:31;100988.63;;;13.07;81.66
81387;BME280;70842;50.744;7.114;2023-08-07T07:29:58;100981.56;;;12.97;81.62
81387;BME280;70842;50.744;7.114;2023-08-07T07:32:24;100988.75;;;12.85;81.32
81387;BME280;70842;50.744;7.114;2023-08-07T07:34:52;100997.03;;;12.92;81.66
81387;BME280;70842;50.744;7.114;2023-08-07T07:37:18;100991.63;;;12.93;81.52
81387;BME280;70842;50.744;7.114;2023-08-07T07:39:45;100992.25;;;13.06;80.83
81387;BME280;70842;50.744;7.114;2023-08-07T07:42:11;100995.66;;;13.08;81.57
81387;BME280;70842;50.744;7.114;2023-08-07T07:44:37;100996.94;;;12.93;81.67
81387;BME280;70842;50.744;7.114;2023-08-07T07:47:06;101000.97;;;13.08;80.95
81387;BME280;70842;50.744;7.114;2023-08-07T07:49:33;100995.69;;;13.18;81.26
81387;BME280;70842;50.744;7.114;2023-08-07T07:51:59;100993.19;;;13.16;80.12
81387;BME280;70842;50.744;7.114;2023-08-07T07:54:28;101011.22;;;13.43;80.37
81387;BME280;70842;50.744;7.114;2023-08-07T07:56:54;100998.22;;;13.19;80.01
81387;BME280;70842;50.744;7.114;2023-08-07T07:59:21;101003.31;;;13.32;80.13
81387;BME280;70842;50.744;7.114;2023-08-07T08:01:47;101016.16;;;13.57;79.44
81387;BME280;70842;50.744;7.114;2023-08-07T08:04:14;101014.41;;;13.77;79.17
81387;BME280;70842;50.744;7.114;2023-08-07T08:06:40;101022.78;;;13.63;77.59
81387;BME280;70842;50.744;7.114;2023-08-07T08:09:07;101010.97;;;13.56;78.16
81387;BME280;70842;50.744;7.114;2023-08-07T08:11:36;101016.91;;;13.69;78.49
81387;BME280;70842;50.744;7.114;2023-08-07T08:14:02;101025.91;;;13.68;77.99
81387;BME280;70842;50.744;7.114;2023-08-07T08:16:28;101022.22;;;13.59;77.84
81387;BME280;70842;50.744;7.114;2023-08-07T08:18:55;101037.75;;;13.64;77.18
81387;BME280;70842;50.744;7.114;2023-08-07T08:21:21;101040.44;;;13.64;77.79
81387;BME280;70842;50.744;7.114;2023-08-07T08:23:48;101036.16;;;13.82;76.97
81387;BME280;70842;50.744;7.114;2023-08-07T08:26:14;101039.81;;;13.90;76.64
81387;BME280;70842;50.744;7.114;2023-08-07T08:28:40;101045.41;;;13.78;76.71
81387;BME280;70842;50.744;7.114;2023-08-07T08:31:07;101049.56;;;14.20;75.47
81387;BME280;70842;50.744;7.114;2023-08-07T08:33:33;101055.97;;;13.98;76.05
81387;BME280;70842;50.744;7.114;2023-08-07T08:35:59;101054.94;;;14.30;75.51
81387;BME280;70842;50.744;7.114;2023-08-07T08:38:26;101061.25;;;14.29;75.89
81387;BME280;70842;50.744;7.114;2023-08-07T08:41:02;101063.09;;;14.47;73.71
81387;BME280;70842;50.744;7.114;2023-08-07T08:43:34;101059.44;;;14.29;75.01
81387;BME280;70842;50.744;7.114;2023-08-07T08:46:01;101060.53;;;14.27;73.81
81387;BME280;70842;50.744;7.114;2023-08-07T08:48:27;101063.91;;;14.38;74.19
81387;BME280;70842;50.744;7.114;2023-08-07T08:50:58;101065.06;;;14.64;72.85
81387;BME280;70842;50.744;7.114;2023-08-07T08:53:25;101063.09;;;14.47;73.28
81387;BME280;70842;50.744;7.114;2023-08-07T08:55:51;101057.19;;;14.53;72.74
81387;BME280;70842;50.744;7.114;2023-08-07T08:58:19;101068.44;;;14.66;73.14
81387;BME280;70842;50.744;7.114;2023-08-07T09:00:47;101075.31;;;14.50;73.40
81387;BME280;70842;50.744;7.114;2023-08-07T09:03:14;101079.38;;;14.82;73.92
81387;BME280;70842;50.744;7.114;2023-08-07T09:05:41;101082.19;;;14.52;74.87
81387;BME280;70842;50.744;7.114;2023-08-07T09:08:08;101085.56;;;14.64;74.74
81387;BME280;70842;50.744;7.114;2023-08-07T09:10:36;101086.38;;;14.45;74.30
81387;BME280;70842;50.744;7.114;2023-08-07T09:13:04;101090.34;;;14.60;74.17
81387;BME280;70842;50.744;7.114;2023-08-07T09:15:32;101078.53;;;15.01;72.26
81387;BME280;70842;50.744;7.114;2023-08-07T09:18:00;101079.66;;;14.79;73.91
81387;BME280;70842;50.744;7.114;2023-08-07T09:20:27;101092.31;;;14.77;74.00
81387;BME280;70842;50.744;7.114;2023-08-07T09:22:54;101092.00;;;14.80;73.27
81387;BME280;70842;50.744;7.114;2023-08-07T09:25:28;101094.81;;;15.08;72.66
81387;BME280;70842;50.744;7.114;2023-08-07T09:27:55;101101.41;;;15.13;72.31
81387;BME280;70842;50.744;7.114;2023-08-07T09:30:26;101098.97;;;15.29;71.93
81387;BME280;70842;50.744;7.114;2023-08-07T09:32:53;101101.09;;;15.26;72.13
81387;BME280;70842;50.744;7.114;2023-08-07T09:35:21;101104.34;;;15.20;69.25
81387;BME280;70842;50.744;7.114;2023-08-07T09:37:47;101108.94;;;15.56;69.42
81387;BME280;70842;50.744;7.114;2023-08-07T09:40:14;101100.94;;;15.27;68.40
81387;BME280;70842;50.744;7.114;2023-08-07T09:42:42;101111.09;;;15.24;69.40
81387;BME280;70842;50.744;7.114;2023-08-07T09:45:25;101110.38;;;15.22;69.77
81387;BME280;70842;50.744;7.114;2023-08-07T09:48:05;101122.06;;;15.02;70.00
81387;BME280;70842;50.744;7.114;2023-08-07T09:50:37;101120.78;;;15.15;69.13
81387;BME280;70842;50.744;7.114;2023-08-07T09:53:03;101135.81;;;15.07;70.84
81387;BME280;70842;50.744;7.114;2023-08-07T09:55:30;101136.94;;;15.52;69.84
81387;BME280;70842;50.744;7.114;2023-08-07T09:57:57;101143.66;;;15.27;69.66
81387;BME280;70842;50.744;7.114;2023-08-07T10:00:26;101137.19;;;15.39;70.28
81387;BME280;70842;50.744;7.114;2023-08-07T10:02:54;101147.91;;;15.11;71.17
81387;BME280;70842;50.744;7.114;2023-08-07T10:05:21;101155.19;;;15.28;71.09
81387;BME280;70842;50.744;7.114;2023-08-07T10:07:48;101165.31;;;14.96;71.42
81387;BME280;70842;50.744;7.114;2023-08-07T10:10:15;101154.94;;;15.12;71.39
81387;BME280;70842;50.744;7.114;2023-08-07T10:12:42;101156.75;;;15.11;71.27
81387;BME280;70842;50.744;7.114;2023-08-07T10:15:12;101151.97;;;14.96;71.51
81387;BME280;70842;50.744;7.114;2023-08-07T10:17:40;101154.66;;;14.96;71.25
81387;BME280;70842;50.744;7.114;2023-08-07T10:20:07;101155.22;;;15.09;70.82
81387;BME280;70842;50.744;7.114;2023-08-07T10:22:34;101163.75;;;15.12;71.29
81387;BME280;70842;50.744;7.114;2023-08-07T10:25:06;101171.78;;;15.12;71.11
81387;BME280;70842;50.744;7.114;2023-08-07T10:27:40;101161.69;;;15.16;70.91
81387;BME280;70842;50.744;7.114;2023-08-07T10:30:10;101157.88;;;15.28;70.87
81387;BME280;70842;50.744;7.114;2023-08-07T10:32:43;101154.47;;;15.64;69.71
81387;BME280;70842;50.744;7.114;2023-08-07T10:35:23;101163.75;;;15.50;69.41
81387;BME280;70842;50.744;7.114;2023-08-07T10:37:50;101155.97;;;15.76;68.59
81387;BME280;70842;50.744;7.114;2023-08-07T10:40:17;101170.84;;;15.88;68.18
81387;BME280;70842;50.744;7.114;2023-08-07T10:45:21;101153.28;;;16.40;65.89
81387;BME280;70842;50.744;7.114;2023-08-07T10:48:08;101157.84;;;16.57;63.85
81387;BME280;70842;50.744;7.114;2023-08-07T10:50:57;101154.81;;;16.70;65.32
81387;BME280;70842;50.744;7.114;2023-08-07T10:55:55;101147.47;;;16.72;64.13
81387;BME280;70842;50.744;7.114;2023-08-07T10:58:33;101142.75;;;16.83;62.55
81387;BME280;70842;50.744;7.114;2023-08-07T11:01:16;101140.97;;;17.09;61.58
81387;BME280;70842;50.744;7.114;2023-08-07T11:03:48;101133.88;;;17.00;61.07
81387;BME280;70842;50.744;7.114;2023-08-07T11:06:16;101151.22;;;17.14;60.97
81387;BME280;70842;50.744;7.114;2023-08-07T11:08:43;101167.97;;;17.16;60.90
81387;BME280;70842;50.744;7.114;2023-08-07T11:11:09;101159.25;;;17.32;60.89
81387;BME280;70842;50.744;7.114;2023-08-07T11:13:35;101141.84;;;17.53;59.42
81387;BME280;70842;50.744;7.114;2023-08-07T11:16:02;101151.81;;;17.69;57.74
81387;BME280;70842;50.744;7.114;2023-08-07T11:18:30;101160.59;;;17.36;59.69
81387;BME280;70842;50.744;7.114;2023-08-07T11:20:57;101156.78;;;17.38;60.12
81387;BME280;70842;50.744;7.114;2023-08-07T11:23:27;101171.50;;;17.16;57.30
81387;BME280;70842;50.744;7.114;2023-08-07T11:25:54;101157.47;;;17.40;57.14
81387;BME280;70842;50.744;7.114;2023-08-07T11:28:22;101156.63;;;17.22;57.52
81387;BME280;70842;50.744;7.114;2023-08-07T11:30:53;101164.88;;;17.46;56.46
81387;BME280;70842;50.744;7.114;2023-08-07T11:33:20;101164.44;;;17.76;56.92
81387;BME280;70842;50.744;7.114;2023-08-07T11:35:48;101154.84;;;18.00;56.73
81387;BME280;70842;50.744;7.114;2023-08-07T11:38:36;101153.38;;;17.79;56.68
81387;BME280;70842;50.744;7.114;2023-08-07T11:41:04;101147.25;;;17.61;56.55
81387;BME280;70842;50.744;7.114;2023-08-07T11:43:33;101160.31;;;18.57;56.17
81387;BME280;70842;50.744;7.114;2023-08-07T11:46:02;101140.91;;;18.30;54.90
81387;BME280;70842;50.744;7.114;2023-08-07T11:48:32;101152.28;;;18.24;55.46
81387;BME280;70842;50.744;7.114;2023-08-07T11:51:00;101149.44;;;18.75;54.60
81387;BME280;70842;50.744;7.114;2023-08-07T11:53:29;101151.91;;;18.11;55.20
81387;BME280;70842;50.744;7.114;2023-08-07T11:56:04;101151.09;;;17.84;54.47
81387;BME280;70842;50.744;7.114;2023-08-07T11:58:35;101148.38;;;18.10;55.06
81387;BME280;70842;50.744;7.114;2023-08-07T12:01:16;101139.22;;;17.87;55.34
81387;BME280;70842;50.744;7.114;2023-08-07T12:03:51;101140.28;;;18.02;53.72
81387;BME280;70842;50.744;7.114;2023-08-07T12:06:19;101150.97;;;18.78;52.85
81387;BME280;70842;50.744;7.114;2023-08-07T12:08:49;101154.09;;;18.49;52.39
81387;BME280;70842;50.744;7.114;2023-08-07T12:11:16;101143.38;;;18.73;50.72
81387;BME280;70842;50.744;7.114;2023-08-07T12:13:44;101135.06;;;19.08;49.53
81387;BME280;70842;50.744;7.114;2023-08-07T12:16:12;101149.16;;;19.34;48.13
81387;BME280;70842;50.744;7.114;2023-08-07T12:18:49;101147.66;;;18.42;49.29
81387;BME280;70842;50.744;7.114;2023-08-07T12:21:18;101132.53;;;18.91;49.48
81387;BME280;70842;50.744;7.114;2023-08-07T12:23:50;101142.94;;;19.26;48.86
81387;BME280;70842;50.744;7.114;2023-08-07T12:26:17;101157.69;;;19.30;49.04
81387;BME280;70842;50.744;7.114;2023-08-07T12:28:44;101149.47;;;18.99;49.56
81387;BME280;70842;50.744;7.114;2023-08-07T12:31:10;101145.44;;;18.87;48.05
81387;BME280;70842;50.744;7.114;2023-08-07T12:33:37;101152.47;;;18.96;46.96
81387;BME280;70842;50.744;7.114;2023-08-07T12:36:03;101153.34;;;19.21;46.74
81387;BME280;70842;50.744;7.114;2023-08-07T12:38:30;101145.78;;;19.16;46.38
81387;BME280;70842;50.744;7.114;2023-08-07T12:40:57;101142.09;;;19.50;45.67
81387;BME280;70842;50.744;7.114;2023-08-07T12:43:23;101128.25;;;19.77;44.93
81387;BME280;70842;50.744;7.114;2023-08-07T12:45:50;101130.47;;;20.28;46.24
81387;BME280;70842;50.744;7.114;2023-08-07T12:48:18;101138.63;;;20.04;44.66
81387;BME280;70842;50.744;7.114;2023-08-07T12:50:46;101129.50;;;20.13;45.63
81387;BME280;70842;50.744;7.114;2023-08-07T12:53:12;101126.31;;;20.09;45.08
81387;BME280;70842;50.744;7.114;2023-08-07T12:55:38;101138.13;;;20.00;46.02
81387;BME280;70842;50.744;7.114;2023-08-07T12:58:05;101140.19;;;19.82;45.01
81387;BME280;70842;50.744;7.114;2023-08-07T13:00:31;101132.53;;;19.55;45.42
81387;BME280;70842;50.744;7.114;2023-08-07T13:02:58;101137.06;;;19.30;47.36
81387;BME280;70842;50.744;7.114;2023-08-07T13:05:25;101131.97;;;19.76;46.75